| ตารางข้อมูล | TH20402 | TH4529A | TH4529D | TH814 | ค้นข้อมูล1 | ค้นข้อมูล2 | ค่าสูงสุด-ต่ำสุด |  

Select Sensor -->| 20402 | 4529A | 4529D | 814 | 824 | 834 | 844 | หน้าจอย่อ | 4529 |
Data of room  20402

IDRoomDate  Temp  Humidity
 146993  20402  2022-08-18 09:10:59  31.4  61.1 
 146989  20402  2022-08-18 08:50:59  31.3  61.7 
 146985  20402  2022-08-18 08:30:58  30.8  62.9 
 146981  20402  2022-08-18 08:10:58  31.3  61.4 
 146977  20402  2022-08-18 07:50:58  31.2  62.1 
 146973  20402  2022-08-18 07:30:57  30.7  62.9 
 146969  20402  2022-08-18 07:10:57  31.3  61.4 
 146965  20402  2022-08-18 06:50:57  31.2  62.0 
 146961  20402  2022-08-18 06:30:56  30.8  62.8 
 146957  20402  2022-08-18 06:10:56  31.3  61.4 
 146953  20402  2022-08-18 05:50:55  31.2  61.9 
 146949  20402  2022-08-18 05:30:55  30.8  62.6 
 146945  20402  2022-08-18 05:10:54  0.0  0.0 
 146941  20402  2022-08-18 04:50:54  0.0  0.0 
 146937  20402  2022-08-18 04:30:54  30.9  62.5 
 146933  20402  2022-08-18 04:10:53  31.4  61.0 
 146929  20402  2022-08-18 03:50:53  31.2  61.8 
 146925  20402  2022-08-18 03:30:53  30.9  62.5 
 146921  20402  2022-08-18 03:10:52  31.5  60.9 
 146917  20402  2022-08-18 02:50:52  31.3  61.7 
 146913  20402  2022-08-18 02:30:51  31.0  63.0 
 146909  20402  2022-08-18 02:10:51  31.5  61.0 
 146905  20402  2022-08-18 01:50:50  31.4  61.7 
 146901  20402  2022-08-18 01:30:50  31.0  62.9 
 146897  20402  2022-08-18 01:10:49  31.5  60.8 
 146893  20402  2022-08-18 00:50:49  31.4  61.6 
 146889  20402  2022-08-18 00:30:49  31.0  63.0 
 146885  20402  2022-08-18 00:10:48  31.6  60.7 
 146881  20402  2022-08-17 23:50:48  31.4  61.6 
 146877  20402  2022-08-17 23:30:47  31.0  62.8 
 146873  20402  2022-08-17 23:10:47  31.6  60.7 
 146869  20402  2022-08-17 22:50:46  31.4  61.4 
 146865  20402  2022-08-17 22:30:46  0.0  0.0 
 146861  20402  2022-08-17 22:10:46  31.6  60.6 
 146857  20402  2022-08-17 21:50:45  31.4  61.2 
 146853  20402  2022-08-17 21:30:45  31.1  62.6 
 146849  20402  2022-08-17 21:10:44  31.6  60.4 
 146845  20402  2022-08-17 20:50:44  31.5  61.2 
 146841  20402  2022-08-17 20:30:43  31.1  62.6 
 146837  20402  2022-08-17 20:10:43  31.8  60.2 
 146833  20402  2022-08-17 19:50:43  31.5  61.0 
 146829  20402  2022-08-17 19:30:42  31.2  62.3 
 146825  20402  2022-08-17 19:10:42  31.8  59.9 
 146821  20402  2022-08-17 18:50:42  31.6  60.6 
 146817  20402  2022-08-17 18:30:41  0.0  0.0 
 146813  20402  2022-08-17 18:10:41  31.8  59.8 
 146809  20402  2022-08-17 17:50:40  0.0  0.0 
 146805  20402  2022-08-17 17:30:40  31.2  61.9 
 146801  20402  2022-08-17 17:10:40  31.8  59.5 
 146797  20402  2022-08-17 16:50:39  31.6  60.1 
 146793  20402  2022-08-17 16:30:39  31.1  61.9 
 146789  20402  2022-08-17 16:10:38  31.8  59.8 
 146785  20402  2022-08-17 15:50:38  31.5  60.4 
 146781  20402  2022-08-17 15:30:37  31.0  62.1 
 146777  20402  2022-08-17 15:10:37  31.6  60.0 
 146773  20402  2022-08-17 14:50:36  31.4  60.5 
 146769  20402  2022-08-17 14:30:36  30.9  61.2 
 146765  20402  2022-08-17 14:10:35  31.4  59.9 
 146761  20402  2022-08-17 13:50:35  31.3  60.6 
 146757  20402  2022-08-17 13:30:35  30.8  61.9 
 146753  20402  2022-08-17 13:10:34  31.3  60.7 
 146749  20402  2022-08-17 12:50:34  31.2  61.3 
 146745  20402  2022-08-17 12:30:33  30.7  62.5 
 146741  20402  2022-08-17 12:10:33  31.2  61.4 
 146737  20402  2022-08-17 11:50:32  31.0  61.9 
 146733  20402  2022-08-17 11:30:32  30.6  62.6 
 146729  20402  2022-08-17 11:10:32  31.1  61.6 
 146725  20402  2022-08-17 10:50:31  30.9  61.5 
 146721  20402  2022-08-17 10:30:31  30.5  63.2 
 146717  20402  2022-08-17 10:10:30  31.0  61.8 
 146713  20402  2022-08-17 09:50:30  30.8  61.7 
 146709  20402  2022-08-17 09:30:30  30.5  63.4 

Data every 20 minute.


Data of room  20402


Data every 20 minute.

  Show Graph